Airfield :
LOGIN :

Register | Disclaimer

   EN    FR    IT 

 










Legend :    VFR   Marginal VFR   IFR   Intensive IFR   Very Intensive IFR
Visi :
Ceiling :
>= 8 km
>= 3000ft
5 to 8 km
1000 to 3000 ft
1500m to 5 km
500 to 1000 ft
800 to 1500m
200 to 500 ft
< 800m
< 200 ft
Symbols :   Thunderstorms  Fog  Heavy snow  Heavy precipitations  Wind > 20 kt
SIGMETs :     Misc.  Thunderstorms  Icing  Turbulence  Mountain Waves  Volcanic Ashes






- Airport Elevation : 39 ft
- IATA code : TRS


LIPQ - Friuli Venezia Giulia Apt. Trieste

CURRENT METAR :
  • 171220Z AUTO 25006KT 210V280 9999 NCD 15/03 Q1004

EXPIRED METARs :
  • 171150Z AUTO 26003KT 210V310 9999 FEW130/// 15/04 Q1004
  • 171120Z AUTO 27004KT 220V330 9999 SCT140/// 15/03 Q1004
  • 171050Z AUTO 31004KT 260V050 9999 NCD 15/03 Q1004
  • 171020Z AUTO 31004KT 270V010 9999 SCT130/// 14/01 Q1005
  • 170950Z AUTO 29003KT 220V020 9999 FEW130/// SCT150/// 14/03 Q1005
  • 170920Z AUTO 28004KT 220V330 9999 SCT150/// 14/03 Q1005
  • 170850Z AUTO VRB04KT 9999 NCD 14/03 Q1005
  • 170820Z AUTO 36005KT 330V050 9999 NCD 13/04 Q1005
  • 170750Z AUTO 02006KT 9999 NCD 12/04 Q1005

TAF TAF LIPQ
Valid from the 17 at 12:00 until the 18 at 12:00 UTC


171100Z 1712/1812 VRB05KT 9999 FEW030
PROB30
TEMPO 1712/1718 TSRA
TEMPO 1718/1724 RA



MET'MAP, your aeronautical weather chart ! - Copyright ORBIFLY December 2007 - Disclaimer

ORBIFLY MET'MAP TEAM :

Programming & Development : Alexandra Zaïnal
Original concept : Baudouin d'Aumeries
Technical & hardware support : Manuel Goepfert
Assistance : Marc-Olivier Méhu




SOURCES & CREDITS :

   NOAA